Terminal Aerodrome Forecast
Issued by NWS

Home | Current Version | Previous Version | Text Only | Print | Product List | Glossary On
Versions: 1 2 3 4 5 6 7 8 9 10 11 12 13 14 15 16 17 18 19 20
000
FTUS43 KGRB 052300
TAFAUW
TAF
KAUW 052320Z 0600/0624 23005KT P6SM SKC
     FM061000 21008KT P6SM SCT150 BKN200
     FM061600 23011G19KT P6SM SCT040 BKN090
     FM062100 25008KT P6SM SCT022 SCT050=

USA.gov is the U.S. government's official web portal to all federal, state and local government web resources and services.